sensor_id;sensor_type;location;lat;lon;timestamp;P1;durP1;ratioP1;P2;durP2;ratioP2
12844;SDS011;68700;48.534;9.196;2023-07-29T00:00:46;3.70;;;2.57;;
12844;SDS011;68700;48.534;9.196;2023-07-29T00:04:09;8.27;;;2.87;;
12844;SDS011;68700;48.534;9.196;2023-07-29T00:07:33;7.00;;;3.07;;
12844;SDS011;68700;48.534;9.196;2023-07-29T00:10:55;5.20;;;3.67;;
12844;SDS011;68700;48.534;9.196;2023-07-29T00:14:16;4.00;;;2.87;;
12844;SDS011;68700;48.534;9.196;2023-07-29T00:17:38;4.13;;;3.30;;
12844;SDS011;68700;48.534;9.196;2023-07-29T00:21:01;3.07;;;2.87;;
12844;SDS011;68700;48.534;9.196;2023-07-29T00:24:23;4.60;;;3.53;;
12844;SDS011;68700;48.534;9.196;2023-07-29T00:27:45;3.53;;;3.23;;
12844;SDS011;68700;48.534;9.196;2023-07-29T00:31:07;7.37;;;4.00;;
12844;SDS011;68700;48.534;9.196;2023-07-29T00:34:29;4.47;;;4.07;;
12844;SDS011;68700;48.534;9.196;2023-07-29T00:37:52;5.87;;;3.80;;
12844;SDS011;68700;48.534;9.196;2023-07-29T00:41:14;4.40;;;4.00;;
12844;SDS011;68700;48.534;9.196;2023-07-29T00:44:36;4.27;;;3.87;;
12844;SDS011;68700;48.534;9.196;2023-07-29T00:47:58;4.97;;;3.37;;
12844;SDS011;68700;48.534;9.196;2023-07-29T00:51:20;6.23;;;3.70;;
12844;SDS011;68700;48.534;9.196;2023-07-29T00:54:43;4.67;;;3.70;;
12844;SDS011;68700;48.534;9.196;2023-07-29T00:58:05;3.90;;;3.47;;
12844;SDS011;68700;48.534;9.196;2023-07-29T01:01:27;5.03;;;3.40;;
12844;SDS011;68700;48.534;9.196;2023-07-29T01:04:51;4.67;;;3.60;;
12844;SDS011;68700;48.534;9.196;2023-07-29T01:08:16;3.00;;;2.70;;
12844;SDS011;68700;48.534;9.196;2023-07-29T01:12:01;4.13;;;3.60;;
12844;SDS011;68700;48.534;9.196;2023-07-29T01:15:29;4.03;;;3.63;;
12844;SDS011;68700;48.534;9.196;2023-07-29T01:18:57;3.90;;;3.23;;
12844;SDS011;68700;48.534;9.196;2023-07-29T01:22:21;4.43;;;3.80;;
12844;SDS011;68700;48.534;9.196;2023-07-29T01:25:45;3.37;;;3.07;;
12844;SDS011;68700;48.534;9.196;2023-07-29T01:29:07;4.30;;;3.13;;
12844;SDS011;68700;48.534;9.196;2023-07-29T01:32:30;3.47;;;3.17;;
12844;SDS011;68700;48.534;9.196;2023-07-29T01:35:57;4.10;;;3.60;;
12844;SDS011;68700;48.534;9.196;2023-07-29T01:39:23;5.53;;;3.07;;
12844;SDS011;68700;48.534;9.196;2023-07-29T01:42:48;3.57;;;3.27;;
12844;SDS011;68700;48.534;9.196;2023-07-29T01:46:10;3.53;;;3.23;;
12844;SDS011;68700;48.534;9.196;2023-07-29T01:49:32;4.60;;;3.53;;
12844;SDS011;68700;48.534;9.196;2023-07-29T01:52:54;4.70;;;3.60;;
12844;SDS011;68700;48.534;9.196;2023-07-29T01:56:16;3.73;;;3.10;;
12844;SDS011;68700;48.534;9.196;2023-07-29T01:59:39;3.30;;;3.00;;
12844;SDS011;68700;48.534;9.196;2023-07-29T02:03:01;3.80;;;3.20;;
12844;SDS011;68700;48.534;9.196;2023-07-29T02:06:23;4.27;;;3.40;;
12844;SDS011;68700;48.534;9.196;2023-07-29T02:09:45;3.37;;;3.07;;
12844;SDS011;68700;48.534;9.196;2023-07-29T02:13:07;2.80;;;2.60;;
12844;SDS011;68700;48.534;9.196;2023-07-29T02:16:30;6.50;;;3.13;;
12844;SDS011;68700;48.534;9.196;2023-07-29T02:19:52;3.80;;;2.70;;
12844;SDS011;68700;48.534;9.196;2023-07-29T02:23:14;5.37;;;2.90;;
12844;SDS011;68700;48.534;9.196;2023-07-29T02:26:37;5.43;;;3.20;;
12844;SDS011;68700;48.534;9.196;2023-07-29T02:29:58;6.20;;;3.00;;
12844;SDS011;68700;48.534;9.196;2023-07-29T02:33:22;4.50;;;2.60;;
12844;SDS011;68700;48.534;9.196;2023-07-29T02:36:43;8.37;;;2.90;;
12844;SDS011;68700;48.534;9.196;2023-07-29T02:40:06;3.40;;;2.57;;
12844;SDS011;68700;48.534;9.196;2023-07-29T02:43:28;2.70;;;2.50;;
12844;SDS011;68700;48.534;9.196;2023-07-29T02:46:50;2.93;;;2.30;;
12844;SDS011;68700;48.534;9.196;2023-07-29T02:50:16;3.50;;;2.53;;
12844;SDS011;68700;48.534;9.196;2023-07-29T02:53:37;5.37;;;2.70;;
12844;SDS011;68700;48.534;9.196;2023-07-29T02:56:59;3.17;;;2.47;;
12844;SDS011;68700;48.534;9.196;2023-07-29T03:00:21;3.57;;;2.60;;
12844;SDS011;68700;48.534;9.196;2023-07-29T03:03:43;12.37;;;3.40;;
12844;SDS011;68700;48.534;9.196;2023-07-29T03:07:06;10.33;;;3.83;;
12844;SDS011;68700;48.534;9.196;2023-07-29T03:10:28;3.27;;;2.80;;
12844;SDS011;68700;48.534;9.196;2023-07-29T03:13:50;4.43;;;2.90;;
12844;SDS011;68700;48.534;9.196;2023-07-29T03:17:12;3.60;;;3.10;;
12844;SDS011;68700;48.534;9.196;2023-07-29T03:20:33;5.00;;;3.00;;
12844;SDS011;68700;48.534;9.196;2023-07-29T03:23:57;3.60;;;2.93;;
12844;SDS011;68700;48.534;9.196;2023-07-29T03:27:18;3.10;;;2.80;;
12844;SDS011;68700;48.534;9.196;2023-07-29T03:30:40;4.10;;;2.87;;
12844;SDS011;68700;48.534;9.196;2023-07-29T03:34:02;4.57;;;2.97;;
12844;SDS011;68700;48.534;9.196;2023-07-29T03:37:24;3.10;;;2.57;;
12844;SDS011;68700;48.534;9.196;2023-07-29T03:40:47;3.40;;;2.90;;
12844;SDS011;68700;48.534;9.196;2023-07-29T03:44:09;3.33;;;2.67;;
12844;SDS011;68700;48.534;9.196;2023-07-29T03:47:30;3.20;;;2.83;;
12844;SDS011;68700;48.534;9.196;2023-07-29T03:50:52;4.83;;;3.17;;
12844;SDS011;68700;48.534;9.196;2023-07-29T03:54:14;3.97;;;3.40;;
12844;SDS011;68700;48.534;9.196;2023-07-29T03:57:38;3.47;;;3.17;;
12844;SDS011;68700;48.534;9.196;2023-07-29T04:00:59;6.10;;;3.00;;
12844;SDS011;68700;48.534;9.196;2023-07-29T04:04:21;4.43;;;2.97;;
12844;SDS011;68700;48.534;9.196;2023-07-29T04:07:43;5.00;;;3.23;;
12844;SDS011;68700;48.534;9.196;2023-07-29T04:11:05;3.30;;;2.70;;
12844;SDS011;68700;48.534;9.196;2023-07-29T04:14:28;3.50;;;2.83;;
12844;SDS011;68700;48.534;9.196;2023-07-29T04:17:50;3.47;;;2.63;;
12844;SDS011;68700;48.534;9.196;2023-07-29T04:21:12;4.60;;;2.70;;
12844;SDS011;68700;48.534;9.196;2023-07-29T04:24:34;2.90;;;2.60;;
12844;SDS011;68700;48.534;9.196;2023-07-29T04:27:55;4.10;;;2.23;;
12844;SDS011;68700;48.534;9.196;2023-07-29T04:31:19;5.47;;;2.70;;
12844;SDS011;68700;48.534;9.196;2023-07-29T04:34:41;4.00;;;2.70;;
12844;SDS011;68700;48.534;9.196;2023-07-29T04:38:03;3.07;;;2.60;;
12844;SDS011;68700;48.534;9.196;2023-07-29T04:41:25;3.57;;;2.57;;
12844;SDS011;68700;48.534;9.196;2023-07-29T04:44:46;4.40;;;2.30;;
12844;SDS011;68700;48.534;9.196;2023-07-29T04:48:09;4.97;;;2.70;;
12844;SDS011;68700;48.534;9.196;2023-07-29T04:51:31;2.77;;;2.57;;
12844;SDS011;68700;48.534;9.196;2023-07-29T04:54:53;3.70;;;2.30;;
12844;SDS011;68700;48.534;9.196;2023-07-29T04:58:15;2.13;;;2.03;;
12844;SDS011;68700;48.534;9.196;2023-07-29T05:01:37;3.23;;;2.50;;
12844;SDS011;68700;48.534;9.196;2023-07-29T05:05:00;4.00;;;2.73;;
12844;SDS011;68700;48.534;9.196;2023-07-29T05:08:22;4.43;;;2.73;;
12844;SDS011;68700;48.534;9.196;2023-07-29T05:11:44;2.83;;;2.20;;
12844;SDS011;68700;48.534;9.196;2023-07-29T05:15:07;4.20;;;3.07;;
12844;SDS011;68700;48.534;9.196;2023-07-29T05:18:30;2.40;;;2.20;;
12844;SDS011;68700;48.534;9.196;2023-07-29T05:21:53;3.30;;;2.37;;
12844;SDS011;68700;48.534;9.196;2023-07-29T05:25:14;3.00;;;2.70;;
12844;SDS011;68700;48.534;9.196;2023-07-29T05:28:36;3.57;;;2.33;;
12844;SDS011;68700;48.534;9.196;2023-07-29T05:31:58;3.40;;;2.60;;
12844;SDS011;68700;48.534;9.196;2023-07-29T05:35:20;4.43;;;2.50;;
12844;SDS011;68700;48.534;9.196;2023-07-29T05:38:43;2.50;;;2.30;;
12844;SDS011;68700;48.534;9.196;2023-07-29T05:42:05;3.83;;;2.50;;
12844;SDS011;68700;48.534;9.196;2023-07-29T05:45:28;6.73;;;2.40;;
12844;SDS011;68700;48.534;9.196;2023-07-29T05:48:51;3.03;;;2.30;;
12844;SDS011;68700;48.534;9.196;2023-07-29T05:52:12;7.20;;;2.80;;
12844;SDS011;68700;48.534;9.196;2023-07-29T05:55:35;5.60;;;2.33;;
12844;SDS011;68700;48.534;9.196;2023-07-29T05:58:57;2.27;;;1.97;;
12844;SDS011;68700;48.534;9.196;2023-07-29T06:02:19;3.17;;;2.40;;
12844;SDS011;68700;48.534;9.196;2023-07-29T06:05:41;3.30;;;2.20;;
12844;SDS011;68700;48.534;9.196;2023-07-29T06:09:03;2.23;;;1.73;;
12844;SDS011;68700;48.534;9.196;2023-07-29T06:12:26;3.10;;;2.10;;
12844;SDS011;68700;48.534;9.196;2023-07-29T06:15:48;1.90;;;1.80;;
12844;SDS011;68700;48.534;9.196;2023-07-29T06:19:09;2.10;;;1.90;;
12844;SDS011;68700;48.534;9.196;2023-07-29T06:22:31;1.90;;;1.70;;
12844;SDS011;68700;48.534;9.196;2023-07-29T06:25:53;2.00;;;1.90;;
12844;SDS011;68700;48.534;9.196;2023-07-29T06:29:16;2.23;;;1.83;;
12844;SDS011;68700;48.534;9.196;2023-07-29T06:32:38;3.97;;;2.17;;
12844;SDS011;68700;48.534;9.196;2023-07-29T06:36:00;2.80;;;1.80;;
12844;SDS011;68700;48.534;9.196;2023-07-29T06:39:22;3.30;;;1.87;;
12844;SDS011;68700;48.534;9.196;2023-07-29T06:42:43;2.23;;;2.03;;
12844;SDS011;68700;48.534;9.196;2023-07-29T06:46:07;3.10;;;1.80;;
12844;SDS011;68700;48.534;9.196;2023-07-29T06:49:28;4.73;;;2.00;;
12844;SDS011;68700;48.534;9.196;2023-07-29T06:52:50;2.57;;;1.70;;
12844;SDS011;68700;48.534;9.196;2023-07-29T06:56:12;4.03;;;1.70;;
12844;SDS011;68700;48.534;9.196;2023-07-29T06:59:34;3.85;;;2.17;;
12844;SDS011;68700;48.534;9.196;2023-07-29T07:02:57;3.10;;;2.13;;
12844;SDS011;68700;48.534;9.196;2023-07-29T07:06:19;4.20;;;2.67;;
12844;SDS011;68700;48.534;9.196;2023-07-29T07:09:41;3.37;;;2.20;;
12844;SDS011;68700;48.534;9.196;2023-07-29T07:13:03;5.80;;;2.60;;
12844;SDS011;68700;48.534;9.196;2023-07-29T07:16:25;4.10;;;2.80;;
12844;SDS011;68700;48.534;9.196;2023-07-29T07:19:50;5.20;;;2.70;;
12844;SDS011;68700;48.534;9.196;2023-07-29T07:23:12;3.73;;;2.87;;
12844;SDS011;68700;48.534;9.196;2023-07-29T07:26:35;6.13;;;2.67;;
12844;SDS011;68700;48.534;9.196;2023-07-29T07:29:57;2.67;;;2.47;;
12844;SDS011;68700;48.534;9.196;2023-07-29T07:33:19;3.20;;;2.90;;
12844;SDS011;68700;48.534;9.196;2023-07-29T07:36:42;2.60;;;2.40;;
12844;SDS011;68700;48.534;9.196;2023-07-29T07:40:04;3.30;;;2.90;;
12844;SDS011;68700;48.534;9.196;2023-07-29T07:43:27;3.43;;;2.43;;
12844;SDS011;68700;48.534;9.196;2023-07-29T07:46:49;3.67;;;2.70;;
12844;SDS011;68700;48.534;9.196;2023-07-29T07:50:11;2.33;;;2.13;;
12844;SDS011;68700;48.534;9.196;2023-07-29T07:53:35;2.70;;;2.33;;
12844;SDS011;68700;48.534;9.196;2023-07-29T07:56:57;4.20;;;2.40;;
12844;SDS011;68700;48.534;9.196;2023-07-29T08:00:19;3.93;;;2.50;;
12844;SDS011;68700;48.534;9.196;2023-07-29T08:03:41;3.07;;;2.70;;
12844;SDS011;68700;48.534;9.196;2023-07-29T08:07:03;3.97;;;2.60;;
12844;SDS011;68700;48.534;9.196;2023-07-29T08:10:26;3.13;;;2.47;;
12844;SDS011;68700;48.534;9.196;2023-07-29T08:13:48;4.93;;;3.10;;
12844;SDS011;68700;48.534;9.196;2023-07-29T08:17:10;2.87;;;2.37;;
12844;SDS011;68700;48.534;9.196;2023-07-29T08:20:32;3.50;;;2.20;;
12844;SDS011;68700;48.534;9.196;2023-07-29T08:23:54;2.60;;;2.30;;
12844;SDS011;68700;48.534;9.196;2023-07-29T08:27:17;2.57;;;2.20;;
12844;SDS011;68700;48.534;9.196;2023-07-29T08:30:39;2.37;;;2.07;;
12844;SDS011;68700;48.534;9.196;2023-07-29T08:34:00;2.90;;;2.33;;
12844;SDS011;68700;48.534;9.196;2023-07-29T08:37:22;4.87;;;2.03;;
12844;SDS011;68700;48.534;9.196;2023-07-29T08:40:45;2.30;;;2.10;;
12844;SDS011;68700;48.534;9.196;2023-07-29T08:44:12;1.93;;;1.80;;
12844;SDS011;68700;48.534;9.196;2023-07-29T08:47:42;2.30;;;2.10;;
12844;SDS011;68700;48.534;9.196;2023-07-29T08:51:04;2.77;;;2.17;;
12844;SDS011;68700;48.534;9.196;2023-07-29T08:54:29;2.70;;;2.50;;
12844;SDS011;68700;48.534;9.196;2023-07-29T08:57:51;2.60;;;2.03;;
12844;SDS011;68700;48.534;9.196;2023-07-29T09:01:15;2.10;;;1.90;;
12844;SDS011;68700;48.534;9.196;2023-07-29T09:04:37;2.43;;;2.23;;
12844;SDS011;68700;48.534;9.196;2023-07-29T09:07:58;3.40;;;2.50;;
12844;SDS011;68700;48.534;9.196;2023-07-29T09:11:21;2.20;;;2.00;;
12844;SDS011;68700;48.534;9.196;2023-07-29T09:14:43;2.20;;;2.00;;
12844;SDS011;68700;48.534;9.196;2023-07-29T09:18:12;3.37;;;2.13;;
12844;SDS011;68700;48.534;9.196;2023-07-29T09:21:38;2.73;;;2.20;;
12844;SDS011;68700;48.534;9.196;2023-07-29T09:25:00;4.77;;;2.37;;
12844;SDS011;68700;48.534;9.196;2023-07-29T09:28:22;2.67;;;2.33;;
12844;SDS011;68700;48.534;9.196;2023-07-29T09:31:44;4.33;;;2.60;;
12844;SDS011;68700;48.534;9.196;2023-07-29T09:35:11;4.83;;;2.40;;
12844;SDS011;68700;48.534;9.196;2023-07-29T09:38:34;3.10;;;2.70;;
12844;SDS011;68700;48.534;9.196;2023-07-29T09:41:56;3.33;;;2.20;;
12844;SDS011;68700;48.534;9.196;2023-07-29T09:45:21;2.90;;;2.47;;
12844;SDS011;68700;48.534;9.196;2023-07-29T09:48:44;2.40;;;2.20;;
12844;SDS011;68700;48.534;9.196;2023-07-29T09:55:58;3.27;;;2.30;;
12844;SDS011;68700;48.534;9.196;2023-07-29T09:59:19;2.80;;;2.60;;
12844;SDS011;68700;48.534;9.196;2023-07-29T10:02:44;2.63;;;2.43;;
12844;SDS011;68700;48.534;9.196;2023-07-29T10:06:12;2.60;;;2.40;;
12844;SDS011;68700;48.534;9.196;2023-07-29T10:09:37;2.60;;;2.40;;
12844;SDS011;68700;48.534;9.196;2023-07-29T10:13:00;2.67;;;2.40;;
12844;SDS011;68700;48.534;9.196;2023-07-29T10:16:23;2.63;;;2.43;;
12844;SDS011;68700;48.534;9.196;2023-07-29T10:19:46;2.83;;;2.57;;
12844;SDS011;68700;48.534;9.196;2023-07-29T10:23:09;3.77;;;2.40;;
12844;SDS011;68700;48.534;9.196;2023-07-29T10:26:33;2.73;;;2.30;;
12844;SDS011;68700;48.534;9.196;2023-07-29T10:29:58;2.40;;;2.20;;
12844;SDS011;68700;48.534;9.196;2023-07-29T10:33:20;2.90;;;2.70;;
12844;SDS011;68700;48.534;9.196;2023-07-29T10:36:42;3.07;;;2.23;;
12844;SDS011;68700;48.534;9.196;2023-07-29T10:40:06;2.40;;;2.20;;
12844;SDS011;68700;48.534;9.196;2023-07-29T10:43:32;4.43;;;2.50;;
12844;SDS011;68700;48.534;9.196;2023-07-29T10:46:56;2.70;;;2.50;;
12844;SDS011;68700;48.534;9.196;2023-07-29T10:50:18;2.43;;;2.20;;
12844;SDS011;68700;48.534;9.196;2023-07-29T10:53:40;2.67;;;2.47;;
12844;SDS011;68700;48.534;9.196;2023-07-29T10:57:02;2.53;;;2.33;;
12844;SDS011;68700;48.534;9.196;2023-07-29T11:00:26;2.63;;;2.40;;
12844;SDS011;68700;48.534;9.196;2023-07-29T11:04:00;2.67;;;2.47;;
12844;SDS011;68700;48.534;9.196;2023-07-29T11:07:43;2.53;;;2.33;;
12844;SDS011;68700;48.534;9.196;2023-07-29T11:11:06;2.27;;;2.07;;
12844;SDS011;68700;48.534;9.196;2023-07-29T11:14:29;3.27;;;2.50;;
12844;SDS011;68700;48.534;9.196;2023-07-29T11:17:53;2.87;;;2.40;;
12844;SDS011;68700;48.534;9.196;2023-07-29T11:21:16;5.27;;;2.50;;
12844;SDS011;68700;48.534;9.196;2023-07-29T11:24:40;2.50;;;2.30;;
12844;SDS011;68700;48.534;9.196;2023-07-29T11:28:03;2.60;;;2.40;;
12844;SDS011;68700;48.534;9.196;2023-07-29T11:31:38;3.97;;;2.30;;
12844;SDS011;68700;48.534;9.196;2023-07-29T11:35:05;2.77;;;2.57;;
12844;SDS011;68700;48.534;9.196;2023-07-29T11:38:28;2.40;;;2.20;;
12844;SDS011;68700;48.534;9.196;2023-07-29T11:41:53;2.33;;;2.13;;
12844;SDS011;68700;48.534;9.196;2023-07-29T11:45:14;2.80;;;2.60;;
12844;SDS011;68700;48.534;9.196;2023-07-29T11:48:36;2.73;;;2.40;;
12844;SDS011;68700;48.534;9.196;2023-07-29T11:52:02;3.03;;;2.20;;
12844;SDS011;68700;48.534;9.196;2023-07-29T11:55:24;2.23;;;2.10;;
12844;SDS011;68700;48.534;9.196;2023-07-29T11:58:46;5.13;;;2.17;;
12844;SDS011;68700;48.534;9.196;2023-07-29T12:02:10;3.20;;;2.37;;
12844;SDS011;68700;48.534;9.196;2023-07-29T12:05:34;2.60;;;2.40;;
12844;SDS011;68700;48.534;9.196;2023-07-29T12:08:58;2.50;;;2.30;;
12844;SDS011;68700;48.534;9.196;2023-07-29T12:12:21;2.37;;;2.17;;
12844;SDS011;68700;48.534;9.196;2023-07-29T12:15:44;2.43;;;2.23;;
12844;SDS011;68700;48.534;9.196;2023-07-29T12:19:05;2.30;;;2.10;;
12844;SDS011;68700;48.534;9.196;2023-07-29T12:22:27;2.37;;;2.17;;
12844;SDS011;68700;48.534;9.196;2023-07-29T12:25:51;2.03;;;1.80;;
12844;SDS011;68700;48.534;9.196;2023-07-29T12:29:18;2.37;;;2.17;;
12844;SDS011;68700;48.534;9.196;2023-07-29T12:32:43;2.40;;;2.20;;
12844;SDS011;68700;48.534;9.196;2023-07-29T12:36:06;2.60;;;2.40;;
12844;SDS011;68700;48.534;9.196;2023-07-29T12:39:28;2.90;;;2.20;;
12844;SDS011;68700;48.534;9.196;2023-07-29T12:42:53;2.50;;;2.30;;
12844;SDS011;68700;48.534;9.196;2023-07-29T12:46:15;2.50;;;2.20;;
12844;SDS011;68700;48.534;9.196;2023-07-29T12:49:37;3.07;;;2.30;;
12844;SDS011;68700;48.534;9.196;2023-07-29T12:52:59;2.50;;;2.30;;
12844;SDS011;68700;48.534;9.196;2023-07-29T12:56:21;3.23;;;2.40;;
12844;SDS011;68700;48.534;9.196;2023-07-29T12:59:44;2.50;;;2.20;;
12844;SDS011;68700;48.534;9.196;2023-07-29T13:03:06;3.37;;;2.43;;
12844;SDS011;68700;48.534;9.196;2023-07-29T13:06:27;4.17;;;2.30;;
12844;SDS011;68700;48.534;9.196;2023-07-29T13:09:49;2.80;;;2.40;;
12844;SDS011;68700;48.534;9.196;2023-07-29T13:13:11;3.20;;;2.50;;
12844;SDS011;68700;48.534;9.196;2023-07-29T13:16:34;3.90;;;2.53;;
12844;SDS011;68700;48.534;9.196;2023-07-29T13:19:56;2.67;;;2.47;;
12844;SDS011;68700;48.534;9.196;2023-07-29T13:23:18;4.50;;;2.60;;
12844;SDS011;68700;48.534;9.196;2023-07-29T13:26:40;2.90;;;2.67;;
12844;SDS011;68700;48.534;9.196;2023-07-29T13:30:02;4.10;;;2.40;;
12844;SDS011;68700;48.534;9.196;2023-07-29T13:33:26;2.73;;;2.53;;
12844;SDS011;68700;48.534;9.196;2023-07-29T13:36:48;2.93;;;2.67;;
12844;SDS011;68700;48.534;9.196;2023-07-29T13:40:10;2.40;;;2.20;;
12844;SDS011;68700;48.534;9.196;2023-07-29T13:43:31;2.80;;;2.60;;
12844;SDS011;68700;48.534;9.196;2023-07-29T13:46:53;3.20;;;2.63;;
12844;SDS011;68700;48.534;9.196;2023-07-29T13:50:17;2.50;;;2.30;;
12844;SDS011;68700;48.534;9.196;2023-07-29T13:53:39;3.10;;;2.80;;
12844;SDS011;68700;48.534;9.196;2023-07-29T13:57:00;2.80;;;2.33;;
12844;SDS011;68700;48.534;9.196;2023-07-29T14:00:32;2.60;;;2.40;;
12844;SDS011;68700;48.534;9.196;2023-07-29T14:03:54;2.43;;;2.23;;
12844;SDS011;68700;48.534;9.196;2023-07-29T14:07:17;2.90;;;2.70;;
12844;SDS011;68700;48.534;9.196;2023-07-29T14:10:39;3.57;;;2.60;;
12844;SDS011;68700;48.534;9.196;2023-07-29T14:14:01;3.53;;;2.50;;
12844;SDS011;68700;48.534;9.196;2023-07-29T14:17:23;2.97;;;2.40;;
12844;SDS011;68700;48.534;9.196;2023-07-29T14:20:45;2.57;;;2.30;;
12844;SDS011;68700;48.534;9.196;2023-07-29T14:24:08;4.00;;;2.43;;
12844;SDS011;68700;48.534;9.196;2023-07-29T14:27:30;2.60;;;2.40;;
12844;SDS011;68700;48.534;9.196;2023-07-29T14:30:52;2.60;;;2.40;;
12844;SDS011;68700;48.534;9.196;2023-07-29T14:34:14;3.67;;;2.47;;
12844;SDS011;68700;48.534;9.196;2023-07-29T14:37:35;2.70;;;2.30;;
12844;SDS011;68700;48.534;9.196;2023-07-29T14:40:59;3.47;;;2.43;;
12844;SDS011;68700;48.534;9.196;2023-07-29T14:44:21;3.10;;;2.60;;
12844;SDS011;68700;48.534;9.196;2023-07-29T14:47:46;2.87;;;2.50;;
12844;SDS011;68700;48.534;9.196;2023-07-29T14:51:08;4.03;;;2.83;;
12844;SDS011;68700;48.534;9.196;2023-07-29T14:54:29;2.40;;;2.20;;
12844;SDS011;68700;48.534;9.196;2023-07-29T14:57:53;2.47;;;2.27;;
12844;SDS011;68700;48.534;9.196;2023-07-29T15:01:14;2.60;;;2.40;;
12844;SDS011;68700;48.534;9.196;2023-07-29T15:04:36;4.30;;;2.10;;
12844;SDS011;68700;48.534;9.196;2023-07-29T15:07:58;3.40;;;2.40;;
12844;SDS011;68700;48.534;9.196;2023-07-29T15:11:20;2.27;;;2.07;;
12844;SDS011;68700;48.534;9.196;2023-07-29T15:14:43;3.50;;;2.57;;
12844;SDS011;68700;48.534;9.196;2023-07-29T15:18:07;2.63;;;2.43;;
12844;SDS011;68700;48.534;9.196;2023-07-29T15:21:29;2.80;;;2.40;;
12844;SDS011;68700;48.534;9.196;2023-07-29T15:24:53;3.23;;;2.40;;
12844;SDS011;68700;48.534;9.196;2023-07-29T15:28:15;2.77;;;2.27;;
12844;SDS011;68700;48.534;9.196;2023-07-29T15:31:38;2.20;;;2.00;;
12844;SDS011;68700;48.534;9.196;2023-07-29T15:35:01;2.40;;;2.20;;
12844;SDS011;68700;48.534;9.196;2023-07-29T15:38:23;2.60;;;2.40;;
12844;SDS011;68700;48.534;9.196;2023-07-29T15:41:45;2.20;;;2.00;;
12844;SDS011;68700;48.534;9.196;2023-07-29T15:45:10;2.87;;;2.37;;
12844;SDS011;68700;48.534;9.196;2023-07-29T15:48:33;2.60;;;2.30;;
12844;SDS011;68700;48.534;9.196;2023-07-29T15:51:55;2.50;;;2.30;;
12844;SDS011;68700;48.534;9.196;2023-07-29T15:55:17;3.00;;;2.67;;
12844;SDS011;68700;48.534;9.196;2023-07-29T15:58:39;2.60;;;2.40;;
12844;SDS011;68700;48.534;9.196;2023-07-29T16:02:00;2.40;;;2.20;;
12844;SDS011;68700;48.534;9.196;2023-07-29T16:05:24;2.50;;;2.30;;
12844;SDS011;68700;48.534;9.196;2023-07-29T16:08:45;2.93;;;2.40;;
12844;SDS011;68700;48.534;9.196;2023-07-29T16:12:07;2.47;;;2.27;;
12844;SDS011;68700;48.534;9.196;2023-07-29T16:15:29;3.60;;;2.23;;
12844;SDS011;68700;48.534;9.196;2023-07-29T16:18:51;2.50;;;2.30;;
12844;SDS011;68700;48.534;9.196;2023-07-29T16:22:14;3.30;;;2.30;;
12844;SDS011;68700;48.534;9.196;2023-07-29T16:25:36;3.17;;;2.53;;
12844;SDS011;68700;48.534;9.196;2023-07-29T16:28:58;2.33;;;2.13;;
12844;SDS011;68700;48.534;9.196;2023-07-29T16:32:20;4.23;;;2.50;;
12844;SDS011;68700;48.534;9.196;2023-07-29T16:35:41;3.30;;;2.27;;
12844;SDS011;68700;48.534;9.196;2023-07-29T16:39:05;2.60;;;2.40;;
12844;SDS011;68700;48.534;9.196;2023-07-29T16:42:26;3.43;;;2.23;;
12844;SDS011;68700;48.534;9.196;2023-07-29T16:45:48;2.20;;;2.00;;
12844;SDS011;68700;48.534;9.196;2023-07-29T16:49:10;2.53;;;2.30;;
12844;SDS011;68700;48.534;9.196;2023-07-29T16:52:32;2.90;;;2.20;;
12844;SDS011;68700;48.534;9.196;2023-07-29T16:55:55;2.70;;;2.50;;
12844;SDS011;68700;48.534;9.196;2023-07-29T16:59:17;2.77;;;2.40;;
12844;SDS011;68700;48.534;9.196;2023-07-29T17:02:39;2.63;;;2.40;;
12844;SDS011;68700;48.534;9.196;2023-07-29T17:06:00;3.27;;;2.33;;
12844;SDS011;68700;48.534;9.196;2023-07-29T17:09:22;3.43;;;2.47;;
12844;SDS011;68700;48.534;9.196;2023-07-29T17:12:45;3.30;;;2.57;;
12844;SDS011;68700;48.534;9.196;2023-07-29T17:16:07;3.00;;;2.53;;
12844;SDS011;68700;48.534;9.196;2023-07-29T17:19:29;3.63;;;2.80;;
12844;SDS011;68700;48.534;9.196;2023-07-29T17:22:51;3.37;;;2.80;;
12844;SDS011;68700;48.534;9.196;2023-07-29T17:26:13;2.93;;;2.73;;
12844;SDS011;68700;48.534;9.196;2023-07-29T17:29:36;6.57;;;3.40;;
12844;SDS011;68700;48.534;9.196;2023-07-29T17:33:00;3.33;;;3.00;;
12844;SDS011;68700;48.534;9.196;2023-07-29T17:36:22;5.30;;;3.33;;
12844;SDS011;68700;48.534;9.196;2023-07-29T17:39:44;4.70;;;3.50;;
12844;SDS011;68700;48.534;9.196;2023-07-29T17:43:06;4.07;;;3.33;;
12844;SDS011;68700;48.534;9.196;2023-07-29T17:46:29;3.93;;;3.43;;
12844;SDS011;68700;48.534;9.196;2023-07-29T17:49:51;4.13;;;3.50;;
12844;SDS011;68700;48.534;9.196;2023-07-29T17:53:13;6.90;;;3.40;;
12844;SDS011;68700;48.534;9.196;2023-07-29T17:56:34;4.60;;;3.40;;
12844;SDS011;68700;48.534;9.196;2023-07-29T17:59:56;4.93;;;3.57;;
12844;SDS011;68700;48.534;9.196;2023-07-29T18:03:19;3.83;;;3.10;;
12844;SDS011;68700;48.534;9.196;2023-07-29T18:06:41;3.50;;;3.20;;
12844;SDS011;68700;48.534;9.196;2023-07-29T18:10:03;5.90;;;3.33;;
12844;SDS011;68700;48.534;9.196;2023-07-29T18:13:26;4.20;;;3.43;;
12844;SDS011;68700;48.534;9.196;2023-07-29T18:16:47;3.70;;;3.20;;
12844;SDS011;68700;48.534;9.196;2023-07-29T18:20:11;3.60;;;3.30;;
12844;SDS011;68700;48.534;9.196;2023-07-29T18:23:33;3.40;;;3.03;;
12844;SDS011;68700;48.534;9.196;2023-07-29T18:26:55;4.57;;;2.97;;
12844;SDS011;68700;48.534;9.196;2023-07-29T18:30:17;4.53;;;3.23;;
12844;SDS011;68700;48.534;9.196;2023-07-29T18:33:39;5.03;;;4.00;;
12844;SDS011;68700;48.534;9.196;2023-07-29T18:37:02;4.03;;;3.57;;
12844;SDS011;68700;48.534;9.196;2023-07-29T18:40:25;3.70;;;3.40;;
12844;SDS011;68700;48.534;9.196;2023-07-29T18:43:48;3.80;;;3.50;;
12844;SDS011;68700;48.534;9.196;2023-07-29T18:47:17;3.60;;;3.30;;
12844;SDS011;68700;48.534;9.196;2023-07-29T18:50:39;3.63;;;3.33;;
12844;SDS011;68700;48.534;9.196;2023-07-29T18:54:03;4.33;;;3.93;;
12844;SDS011;68700;48.534;9.196;2023-07-29T18:57:25;4.50;;;3.57;;
12844;SDS011;68700;48.534;9.196;2023-07-29T19:00:48;4.00;;;3.60;;
12844;SDS011;68700;48.534;9.196;2023-07-29T19:04:11;4.57;;;4.00;;
12844;SDS011;68700;48.534;9.196;2023-07-29T19:07:33;6.40;;;4.47;;
12844;SDS011;68700;48.534;9.196;2023-07-29T19:10:56;5.03;;;4.30;;
12844;SDS011;68700;48.534;9.196;2023-07-29T19:14:18;4.60;;;3.80;;
12844;SDS011;68700;48.534;9.196;2023-07-29T19:17:41;4.60;;;3.73;;
12844;SDS011;68700;48.534;9.196;2023-07-29T19:21:02;3.73;;;3.43;;
12844;SDS011;68700;48.534;9.196;2023-07-29T19:24:26;3.93;;;3.47;;
12844;SDS011;68700;48.534;9.196;2023-07-29T19:27:50;4.57;;;3.40;;
12844;SDS011;68700;48.534;9.196;2023-07-29T19:31:11;4.60;;;4.20;;
12844;SDS011;68700;48.534;9.196;2023-07-29T19:34:34;5.20;;;4.30;;
12844;SDS011;68700;48.534;9.196;2023-07-29T19:37:55;4.90;;;4.40;;
12844;SDS011;68700;48.534;9.196;2023-07-29T19:41:17;5.17;;;4.57;;
12844;SDS011;68700;48.534;9.196;2023-07-29T19:44:40;5.40;;;4.20;;
12844;SDS011;68700;48.534;9.196;2023-07-29T19:48:02;5.07;;;4.53;;
12844;SDS011;68700;48.534;9.196;2023-07-29T19:51:26;6.53;;;4.70;;
12844;SDS011;68700;48.534;9.196;2023-07-29T19:54:48;5.23;;;4.43;;
12844;SDS011;68700;48.534;9.196;2023-07-29T19:58:10;4.57;;;4.17;;
12844;SDS011;68700;48.534;9.196;2023-07-29T20:01:33;5.37;;;4.83;;
12844;SDS011;68700;48.534;9.196;2023-07-29T20:04:55;5.10;;;4.70;;
12844;SDS011;68700;48.534;9.196;2023-07-29T20:08:16;6.43;;;4.30;;
12844;SDS011;68700;48.534;9.196;2023-07-29T20:11:39;5.40;;;4.30;;
12844;SDS011;68700;48.534;9.196;2023-07-29T20:15:01;4.63;;;4.20;;
12844;SDS011;68700;48.534;9.196;2023-07-29T20:18:25;5.67;;;4.47;;
12844;SDS011;68700;48.534;9.196;2023-07-29T20:21:47;4.50;;;4.10;;
12844;SDS011;68700;48.534;9.196;2023-07-29T20:25:08;4.20;;;3.80;;